sensor_id;sensor_type;location;lat;lon;timestamp;P1;durP1;ratioP1;P2;durP2;ratioP2
63370;SDS011;49504;48.336;14.472;2023-04-30T00:00:19;3.53;;;2.22;;
63370;SDS011;49504;48.336;14.472;2023-04-30T00:03:40;4.00;;;2.58;;
63370;SDS011;49504;48.336;14.472;2023-04-30T00:07:01;3.85;;;2.30;;
63370;SDS011;49504;48.336;14.472;2023-04-30T00:10:22;4.35;;;2.55;;
63370;SDS011;49504;48.336;14.472;2023-04-30T00:13:45;4.28;;;2.33;;
63370;SDS011;49504;48.336;14.472;2023-04-30T00:17:06;4.20;;;2.63;;
63370;SDS011;49504;48.336;14.472;2023-04-30T00:20:27;4.00;;;2.50;;
63370;SDS011;49504;48.336;14.472;2023-04-30T00:23:48;4.15;;;2.70;;
63370;SDS011;49504;48.336;14.472;2023-04-30T00:27:09;4.18;;;2.80;;
63370;SDS011;49504;48.336;14.472;2023-04-30T00:30:32;3.92;;;2.40;;
63370;SDS011;49504;48.336;14.472;2023-04-30T00:33:53;3.97;;;2.65;;
63370;SDS011;49504;48.336;14.472;2023-04-30T00:37:14;4.38;;;2.53;;
63370;SDS011;49504;48.336;14.472;2023-04-30T00:40:36;4.03;;;2.53;;
63370;SDS011;49504;48.336;14.472;2023-04-30T00:43:59;4.53;;;2.92;;
63370;SDS011;49504;48.336;14.472;2023-04-30T00:47:22;4.05;;;2.30;;
63370;SDS011;49504;48.336;14.472;2023-04-30T00:50:43;4.38;;;2.90;;
63370;SDS011;49504;48.336;14.472;2023-04-30T00:54:04;4.30;;;2.83;;
63370;SDS011;49504;48.336;14.472;2023-04-30T00:57:27;3.83;;;2.60;;
63370;SDS011;49504;48.336;14.472;2023-04-30T01:00:49;4.07;;;2.70;;
63370;SDS011;49504;48.336;14.472;2023-04-30T01:04:12;4.10;;;2.80;;
63370;SDS011;49504;48.336;14.472;2023-04-30T01:07:33;4.38;;;2.58;;
63370;SDS011;49504;48.336;14.472;2023-04-30T01:11:03;3.75;;;2.47;;
63370;SDS011;49504;48.336;14.472;2023-04-30T01:14:30;4.32;;;2.80;;
63370;SDS011;49504;48.336;14.472;2023-04-30T01:21:37;4.30;;;2.45;;
63370;SDS011;49504;48.336;14.472;2023-04-30T01:29:12;4.07;;;2.60;;
63370;SDS011;49504;48.336;14.472;2023-04-30T01:32:36;4.13;;;2.75;;
63370;SDS011;49504;48.336;14.472;2023-04-30T01:36:12;4.38;;;2.75;;
63370;SDS011;49504;48.336;14.472;2023-04-30T01:39:57;4.28;;;2.70;;
63370;SDS011;49504;48.336;14.472;2023-04-30T01:46:27;3.97;;;2.40;;
63370;SDS011;49504;48.336;14.472;2023-04-30T01:49:50;4.73;;;2.83;;
63370;SDS011;49504;48.336;14.472;2023-04-30T01:53:23;3.80;;;2.40;;
63370;SDS011;49504;48.336;14.472;2023-04-30T01:56:56;4.20;;;2.67;;
63370;SDS011;49504;48.336;14.472;2023-04-30T02:00:23;3.97;;;2.67;;
63370;SDS011;49504;48.336;14.472;2023-04-30T02:03:47;4.30;;;2.75;;
63370;SDS011;49504;48.336;14.472;2023-04-30T02:07:08;4.28;;;2.60;;
63370;SDS011;49504;48.336;14.472;2023-04-30T02:10:30;3.97;;;2.45;;
63370;SDS011;49504;48.336;14.472;2023-04-30T02:13:51;4.55;;;2.85;;
63370;SDS011;49504;48.336;14.472;2023-04-30T02:17:12;4.53;;;2.80;;
63370;SDS011;49504;48.336;14.472;2023-04-30T02:20:35;4.68;;;2.88;;
63370;SDS011;49504;48.336;14.472;2023-04-30T02:24:20;4.35;;;3.03;;
63370;SDS011;49504;48.336;14.472;2023-04-30T02:27:41;4.13;;;2.65;;
63370;SDS011;49504;48.336;14.472;2023-04-30T02:31:03;4.38;;;2.67;;
63370;SDS011;49504;48.336;14.472;2023-04-30T02:34:24;4.25;;;2.60;;
63370;SDS011;49504;48.336;14.472;2023-04-30T02:37:45;4.20;;;2.88;;
63370;SDS011;49504;48.336;14.472;2023-04-30T02:41:08;4.47;;;2.72;;
63370;SDS011;49504;48.336;14.472;2023-04-30T02:44:29;4.18;;;2.55;;
63370;SDS011;49504;48.336;14.472;2023-04-30T02:47:50;4.38;;;2.47;;
63370;SDS011;49504;48.336;14.472;2023-04-30T02:51:11;4.88;;;2.83;;
63370;SDS011;49504;48.336;14.472;2023-04-30T02:54:32;4.30;;;2.80;;
63370;SDS011;49504;48.336;14.472;2023-04-30T02:57:55;4.30;;;2.70;;
63370;SDS011;49504;48.336;14.472;2023-04-30T03:01:16;4.57;;;2.85;;
63370;SDS011;49504;48.336;14.472;2023-04-30T03:04:37;4.82;;;2.97;;
63370;SDS011;49504;48.336;14.472;2023-04-30T03:07:58;6.32;;;2.90;;
63370;SDS011;49504;48.336;14.472;2023-04-30T03:11:19;3.97;;;2.58;;
63370;SDS011;49504;48.336;14.472;2023-04-30T03:14:42;4.22;;;2.70;;
63370;SDS011;49504;48.336;14.472;2023-04-30T03:18:03;4.40;;;2.63;;
63370;SDS011;49504;48.336;14.472;2023-04-30T03:21:24;4.28;;;2.85;;
63370;SDS011;49504;48.336;14.472;2023-04-30T03:24:46;5.10;;;2.90;;
63370;SDS011;49504;48.336;14.472;2023-04-30T03:28:07;4.30;;;2.58;;
63370;SDS011;49504;48.336;14.472;2023-04-30T03:31:30;4.70;;;2.95;;
63370;SDS011;49504;48.336;14.472;2023-04-30T03:34:51;4.18;;;2.80;;
63370;SDS011;49504;48.336;14.472;2023-04-30T03:38:12;3.83;;;2.47;;
63370;SDS011;49504;48.336;14.472;2023-04-30T03:41:33;4.13;;;2.70;;
63370;SDS011;49504;48.336;14.472;2023-04-30T03:44:54;3.95;;;2.70;;
63370;SDS011;49504;48.336;14.472;2023-04-30T03:48:16;5.45;;;2.40;;
63370;SDS011;49504;48.336;14.472;2023-04-30T03:51:38;4.30;;;2.60;;
63370;SDS011;49504;48.336;14.472;2023-04-30T03:54:59;4.50;;;2.80;;
63370;SDS011;49504;48.336;14.472;2023-04-30T03:58:21;4.47;;;3.00;;
63370;SDS011;49504;48.336;14.472;2023-04-30T04:01:42;4.43;;;2.65;;
63370;SDS011;49504;48.336;14.472;2023-04-30T04:05:05;5.95;;;3.20;;
63370;SDS011;49504;48.336;14.472;2023-04-30T04:08:27;5.10;;;2.90;;
63370;SDS011;49504;48.336;14.472;2023-04-30T04:11:48;4.50;;;2.80;;
63370;SDS011;49504;48.336;14.472;2023-04-30T04:15:09;5.32;;;2.75;;
63370;SDS011;49504;48.336;14.472;2023-04-30T04:18:31;4.28;;;3.17;;
63370;SDS011;49504;48.336;14.472;2023-04-30T04:21:53;4.53;;;2.92;;
63370;SDS011;49504;48.336;14.472;2023-04-30T04:25:15;4.30;;;2.90;;
63370;SDS011;49504;48.336;14.472;2023-04-30T04:28:37;4.38;;;2.72;;
63370;SDS011;49504;48.336;14.472;2023-04-30T04:31:58;4.38;;;3.05;;
63370;SDS011;49504;48.336;14.472;2023-04-30T04:38:16;4.65;;;3.13;;
63370;SDS011;49504;48.336;14.472;2023-04-30T04:41:41;4.32;;;2.80;;
63370;SDS011;49504;48.336;14.472;2023-04-30T04:45:07;5.15;;;3.60;;
63370;SDS011;49504;48.336;14.472;2023-04-30T04:48:29;5.63;;;3.50;;
63370;SDS011;49504;48.336;14.472;2023-04-30T04:52:21;4.72;;;2.90;;
63370;SDS011;49504;48.336;14.472;2023-04-30T04:55:45;4.57;;;2.97;;
63370;SDS011;49504;48.336;14.472;2023-04-30T04:59:06;4.95;;;3.22;;
63370;SDS011;49504;48.336;14.472;2023-04-30T05:02:28;4.70;;;3.17;;
63370;SDS011;49504;48.336;14.472;2023-04-30T05:05:49;5.00;;;2.85;;
63370;SDS011;49504;48.336;14.472;2023-04-30T05:09:12;4.75;;;3.25;;
63370;SDS011;49504;48.336;14.472;2023-04-30T05:12:33;4.75;;;2.90;;
63370;SDS011;49504;48.336;14.472;2023-04-30T05:15:55;4.22;;;2.72;;
63370;SDS011;49504;48.336;14.472;2023-04-30T05:19:16;4.60;;;3.13;;
63370;SDS011;49504;48.336;14.472;2023-04-30T05:22:37;4.40;;;2.90;;
63370;SDS011;49504;48.336;14.472;2023-04-30T05:26:00;4.95;;;3.10;;
63370;SDS011;49504;48.336;14.472;2023-04-30T05:29:21;4.05;;;2.85;;
63370;SDS011;49504;48.336;14.472;2023-04-30T05:34:39;4.55;;;3.05;;
63370;SDS011;49504;48.336;14.472;2023-04-30T05:38:00;4.03;;;2.80;;
63370;SDS011;49504;48.336;14.472;2023-04-30T05:41:21;4.78;;;3.08;;
63370;SDS011;49504;48.336;14.472;2023-04-30T05:44:43;4.70;;;2.95;;
63370;SDS011;49504;48.336;14.472;2023-04-30T05:48:04;5.97;;;3.00;;
63370;SDS011;49504;48.336;14.472;2023-04-30T05:51:27;5.10;;;3.03;;
63370;SDS011;49504;48.336;14.472;2023-04-30T05:57:11;6.18;;;3.60;;
63370;SDS011;49504;48.336;14.472;2023-04-30T06:00:32;4.72;;;3.42;;
63370;SDS011;49504;48.336;14.472;2023-04-30T06:03:53;4.43;;;2.88;;
63370;SDS011;49504;48.336;14.472;2023-04-30T06:07:14;4.82;;;3.58;;
63370;SDS011;49504;48.336;14.472;2023-04-30T06:10:36;4.55;;;3.20;;
63370;SDS011;49504;48.336;14.472;2023-04-30T06:13:59;4.88;;;3.10;;
63370;SDS011;49504;48.336;14.472;2023-04-30T06:17:21;4.70;;;3.30;;
63370;SDS011;49504;48.336;14.472;2023-04-30T06:20:42;5.57;;;3.90;;
63370;SDS011;49504;48.336;14.472;2023-04-30T06:24:04;5.07;;;3.65;;
63370;SDS011;49504;48.336;14.472;2023-04-30T06:27:27;5.78;;;4.07;;
63370;SDS011;49504;48.336;14.472;2023-04-30T06:30:56;5.63;;;3.80;;
63370;SDS011;49504;48.336;14.472;2023-04-30T06:34:18;5.53;;;3.75;;
63370;SDS011;49504;48.336;14.472;2023-04-30T06:37:39;5.93;;;3.90;;
63370;SDS011;49504;48.336;14.472;2023-04-30T06:43:08;4.72;;;3.25;;
63370;SDS011;49504;48.336;14.472;2023-04-30T06:46:29;5.80;;;3.78;;
63370;SDS011;49504;48.336;14.472;2023-04-30T06:49:51;4.63;;;3.30;;
63370;SDS011;49504;48.336;14.472;2023-04-30T06:53:12;5.55;;;3.58;;
63370;SDS011;49504;48.336;14.472;2023-04-30T06:56:34;5.65;;;3.58;;
63370;SDS011;49504;48.336;14.472;2023-04-30T06:59:57;13.30;;;3.78;;
63370;SDS011;49504;48.336;14.472;2023-04-30T07:03:18;5.15;;;3.55;;
63370;SDS011;49504;48.336;14.472;2023-04-30T07:07:38;5.40;;;3.05;;
63370;SDS011;49504;48.336;14.472;2023-04-30T07:11:00;6.88;;;3.72;;
63370;SDS011;49504;48.336;14.472;2023-04-30T07:14:21;6.97;;;3.35;;
63370;SDS011;49504;48.336;14.472;2023-04-30T07:17:42;10.90;;;3.50;;
63370;SDS011;49504;48.336;14.472;2023-04-30T07:21:03;10.73;;;3.30;;
63370;SDS011;49504;48.336;14.472;2023-04-30T07:24:29;8.88;;;3.72;;
63370;SDS011;49504;48.336;14.472;2023-04-30T07:27:51;5.32;;;3.30;;
63370;SDS011;49504;48.336;14.472;2023-04-30T07:31:13;8.13;;;3.30;;
63370;SDS011;49504;48.336;14.472;2023-04-30T07:34:34;5.28;;;3.30;;
63370;SDS011;49504;48.336;14.472;2023-04-30T07:37:56;7.97;;;3.13;;
63370;SDS011;49504;48.336;14.472;2023-04-30T07:41:18;9.25;;;3.78;;
63370;SDS011;49504;48.336;14.472;2023-04-30T07:44:39;4.10;;;3.03;;
63370;SDS011;49504;48.336;14.472;2023-04-30T07:48:01;6.00;;;3.30;;
63370;SDS011;49504;48.336;14.472;2023-04-30T07:51:22;6.05;;;3.28;;
63370;SDS011;49504;48.336;14.472;2023-04-30T07:54:44;4.75;;;3.20;;
63370;SDS011;49504;48.336;14.472;2023-04-30T07:58:07;8.68;;;3.65;;
63370;SDS011;49504;48.336;14.472;2023-04-30T08:01:28;4.40;;;2.88;;
63370;SDS011;49504;48.336;14.472;2023-04-30T08:04:50;5.30;;;3.30;;
63370;SDS011;49504;48.336;14.472;2023-04-30T08:08:11;20.65;;;5.35;;
63370;SDS011;49504;48.336;14.472;2023-04-30T08:11:32;5.03;;;3.45;;
63370;SDS011;49504;48.336;14.472;2023-04-30T08:14:59;6.13;;;3.55;;
63370;SDS011;49504;48.336;14.472;2023-04-30T08:18:22;4.50;;;2.80;;
63370;SDS011;49504;48.336;14.472;2023-04-30T08:21:44;8.77;;;3.50;;
63370;SDS011;49504;48.336;14.472;2023-04-30T08:25:05;4.72;;;3.22;;
63370;SDS011;49504;48.336;14.472;2023-04-30T08:28:30;7.22;;;3.45;;
63370;SDS011;49504;48.336;14.472;2023-04-30T08:31:53;7.20;;;3.20;;
63370;SDS011;49504;48.336;14.472;2023-04-30T08:35:14;6.30;;;3.45;;
63370;SDS011;49504;48.336;14.472;2023-04-30T08:38:35;4.95;;;2.78;;
63370;SDS011;49504;48.336;14.472;2023-04-30T08:41:59;5.45;;;3.13;;
63370;SDS011;49504;48.336;14.472;2023-04-30T08:47:08;7.15;;;2.75;;
63370;SDS011;49504;48.336;14.472;2023-04-30T08:50:32;7.53;;;3.05;;
63370;SDS011;49504;48.336;14.472;2023-04-30T08:53:53;5.13;;;3.03;;
63370;SDS011;49504;48.336;14.472;2023-04-30T08:57:17;4.95;;;3.08;;
63370;SDS011;49504;48.336;14.472;2023-04-30T09:00:39;6.53;;;3.55;;
63370;SDS011;49504;48.336;14.472;2023-04-30T09:04:51;4.47;;;3.08;;
63370;SDS011;49504;48.336;14.472;2023-04-30T09:08:18;5.22;;;3.60;;
63370;SDS011;49504;48.336;14.472;2023-04-30T10:30:56;161.38;;;118.43;;
63370;SDS011;49504;48.336;14.472;2023-04-30T10:34:30;150.55;;;109.05;;
63370;SDS011;49504;48.336;14.472;2023-04-30T10:38:03;149.95;;;106.90;;
63370;SDS011;49504;48.336;14.472;2023-04-30T10:41:35;143.55;;;101.78;;
63370;SDS011;49504;48.336;14.472;2023-04-30T10:44:56;148.40;;;106.40;;
63370;SDS011;49504;48.336;14.472;2023-04-30T10:48:22;147.77;;;101.65;;
63370;SDS011;49504;48.336;14.472;2023-04-30T10:51:48;128.82;;;94.40;;
63370;SDS011;49504;48.336;14.472;2023-04-30T10:55:15;138.20;;;97.28;;
63370;SDS011;49504;48.336;14.472;2023-04-30T10:58:38;127.50;;;93.50;;
63370;SDS011;49504;48.336;14.472;2023-04-30T11:02:00;129.02;;;90.40;;
63370;SDS011;49504;48.336;14.472;2023-04-30T11:05:23;124.47;;;86.22;;
63370;SDS011;49504;48.336;14.472;2023-04-30T11:08:54;118.28;;;84.28;;
63370;SDS011;49504;48.336;14.472;2023-04-30T11:12:24;115.78;;;83.05;;
63370;SDS011;49504;48.336;14.472;2023-04-30T11:15:47;112.55;;;80.90;;
63370;SDS011;49504;48.336;14.472;2023-04-30T11:19:09;114.35;;;79.70;;
63370;SDS011;49504;48.336;14.472;2023-04-30T11:25:39;104.82;;;74.50;;
63370;SDS011;49504;48.336;14.472;2023-04-30T11:29:01;99.68;;;72.78;;
63370;SDS011;49504;48.336;14.472;2023-04-30T11:32:25;103.13;;;73.30;;
63370;SDS011;49504;48.336;14.472;2023-04-30T11:38:49;95.93;;;67.07;;
63370;SDS011;49504;48.336;14.472;2023-04-30T11:42:15;90.80;;;68.78;;
63370;SDS011;49504;48.336;14.472;2023-04-30T11:45:38;86.03;;;63.60;;
63370;SDS011;49504;48.336;14.472;2023-04-30T11:52:00;93.03;;;66.43;;
63370;SDS011;49504;48.336;14.472;2023-04-30T11:55:23;90.22;;;63.33;;
63370;SDS011;49504;48.336;14.472;2023-04-30T12:02:15;80.22;;;58.28;;
63370;SDS011;49504;48.336;14.472;2023-04-30T12:05:36;84.22;;;58.33;;
63370;SDS011;49504;48.336;14.472;2023-04-30T12:09:02;77.43;;;56.95;;
63370;SDS011;49504;48.336;14.472;2023-04-30T12:12:27;84.03;;;57.00;;
63370;SDS011;49504;48.336;14.472;2023-04-30T12:19:17;71.57;;;51.58;;
63370;SDS011;49504;48.336;14.472;2023-04-30T12:22:40;74.38;;;53.60;;
63370;SDS011;49504;48.336;14.472;2023-04-30T12:26:03;67.40;;;49.13;;
63370;SDS011;49504;48.336;14.472;2023-04-30T12:35:14;59.38;;;44.33;;
63370;SDS011;49504;48.336;14.472;2023-04-30T12:38:36;57.75;;;43.38;;
63370;SDS011;49504;48.336;14.472;2023-04-30T12:42:01;57.63;;;43.05;;
63370;SDS011;49504;48.336;14.472;2023-04-30T12:45:42;56.40;;;41.65;;
63370;SDS011;49504;48.336;14.472;2023-04-30T12:49:05;55.70;;;39.67;;
63370;SDS011;49504;48.336;14.472;2023-04-30T12:52:28;53.13;;;40.17;;
63370;SDS011;49504;48.336;14.472;2023-04-30T12:56:08;51.40;;;35.97;;
63370;SDS011;49504;48.336;14.472;2023-04-30T12:59:31;49.92;;;37.78;;
63370;SDS011;49504;48.336;14.472;2023-04-30T13:02:57;48.80;;;37.38;;
63370;SDS011;49504;48.336;14.472;2023-04-30T13:06:22;49.42;;;37.15;;
63370;SDS011;49504;48.336;14.472;2023-04-30T13:11:04;48.67;;;35.42;;
63370;SDS011;49504;48.336;14.472;2023-04-30T13:14:26;48.72;;;36.08;;
63370;SDS011;49504;48.336;14.472;2023-04-30T13:17:48;45.05;;;34.15;;
63370;SDS011;49504;48.336;14.472;2023-04-30T13:21:09;44.05;;;32.67;;
63370;SDS011;49504;48.336;14.472;2023-04-30T13:24:30;41.92;;;31.58;;
63370;SDS011;49504;48.336;14.472;2023-04-30T13:27:53;42.67;;;31.88;;
63370;SDS011;49504;48.336;14.472;2023-04-30T13:31:14;43.72;;;32.17;;
63370;SDS011;49504;48.336;14.472;2023-04-30T13:34:35;38.85;;;29.27;;
63370;SDS011;49504;48.336;14.472;2023-04-30T13:37:57;39.67;;;29.55;;
63370;SDS011;49504;48.336;14.472;2023-04-30T13:41:19;40.20;;;29.42;;
63370;SDS011;49504;48.336;14.472;2023-04-30T13:44:41;37.58;;;27.90;;
63370;SDS011;49504;48.336;14.472;2023-04-30T13:48:02;37.83;;;27.55;;
63370;SDS011;49504;48.336;14.472;2023-04-30T13:51:24;35.35;;;27.10;;
63370;SDS011;49504;48.336;14.472;2023-04-30T13:56:02;36.83;;;28.15;;
63370;SDS011;49504;48.336;14.472;2023-04-30T13:59:24;35.70;;;26.95;;
63370;SDS011;49504;48.336;14.472;2023-04-30T14:02:46;37.90;;;27.75;;
63370;SDS011;49504;48.336;14.472;2023-04-30T14:06:07;33.75;;;25.75;;
63370;SDS011;49504;48.336;14.472;2023-04-30T14:09:28;34.13;;;26.40;;
63370;SDS011;49504;48.336;14.472;2023-04-30T14:12:51;33.00;;;25.48;;
63370;SDS011;49504;48.336;14.472;2023-04-30T14:16:12;33.00;;;24.77;;
63370;SDS011;49504;48.336;14.472;2023-04-30T14:19:33;31.00;;;24.13;;
63370;SDS011;49504;48.336;14.472;2023-04-30T14:22:54;32.78;;;25.40;;
63370;SDS011;49504;48.336;14.472;2023-04-30T14:26:15;29.35;;;22.70;;
63370;SDS011;49504;48.336;14.472;2023-04-30T14:29:38;32.15;;;23.48;;
63370;SDS011;49504;48.336;14.472;2023-04-30T14:32:59;35.85;;;26.17;;
63370;SDS011;49504;48.336;14.472;2023-04-30T14:36:20;28.42;;;22.73;;
63370;SDS011;49504;48.336;14.472;2023-04-30T14:39:41;30.50;;;23.83;;
63370;SDS011;49504;48.336;14.472;2023-04-30T14:43:02;28.00;;;21.38;;
63370;SDS011;49504;48.336;14.472;2023-04-30T14:46:25;28.88;;;23.10;;
63370;SDS011;49504;48.336;14.472;2023-04-30T14:49:46;28.60;;;21.42;;
63370;SDS011;49504;48.336;14.472;2023-04-30T15:12:38;29.08;;;20.75;;
63370;SDS011;49504;48.336;14.472;2023-04-30T15:15:59;23.65;;;18.30;;
63370;SDS011;49504;48.336;14.472;2023-04-30T15:19:20;24.05;;;18.15;;
63370;SDS011;49504;48.336;14.472;2023-04-30T15:22:42;23.13;;;17.30;;
63370;SDS011;49504;48.336;14.472;2023-04-30T15:26:03;24.83;;;18.75;;
63370;SDS011;49504;48.336;14.472;2023-04-30T15:29:26;23.52;;;18.10;;
63370;SDS011;49504;48.336;14.472;2023-04-30T15:32:47;22.85;;;17.17;;
63370;SDS011;49504;48.336;14.472;2023-04-30T15:36:08;24.88;;;18.90;;
63370;SDS011;49504;48.336;14.472;2023-04-30T15:39:29;21.13;;;17.58;;
63370;SDS011;49504;48.336;14.472;2023-04-30T15:42:51;21.70;;;17.23;;
63370;SDS011;49504;48.336;14.472;2023-04-30T15:48:21;20.23;;;15.80;;
63370;SDS011;49504;48.336;14.472;2023-04-30T15:53:52;17.88;;;13.65;;
63370;SDS011;49504;48.336;14.472;2023-04-30T15:57:13;21.30;;;15.65;;
63370;SDS011;49504;48.336;14.472;2023-04-30T16:00:34;19.55;;;14.70;;
63370;SDS011;49504;48.336;14.472;2023-04-30T16:03:55;23.13;;;15.88;;
63370;SDS011;49504;48.336;14.472;2023-04-30T16:09:17;23.65;;;14.43;;
63370;SDS011;49504;48.336;14.472;2023-04-30T16:12:38;22.50;;;15.02;;
63370;SDS011;49504;48.336;14.472;2023-04-30T16:16:00;24.00;;;13.52;;
63370;SDS011;49504;48.336;14.472;2023-04-30T16:19:21;21.48;;;14.30;;
63370;SDS011;49504;48.336;14.472;2023-04-30T16:24:08;28.20;;;14.55;;
63370;SDS011;49504;48.336;14.472;2023-04-30T16:29:36;22.70;;;14.07;;
63370;SDS011;49504;48.336;14.472;2023-04-30T16:32:57;21.17;;;13.88;;
63370;SDS011;49504;48.336;14.472;2023-04-30T16:36:20;20.00;;;13.70;;
63370;SDS011;49504;48.336;14.472;2023-04-30T16:39:41;21.33;;;13.52;;
63370;SDS011;49504;48.336;14.472;2023-04-30T16:44:25;21.73;;;13.00;;
63370;SDS011;49504;48.336;14.472;2023-04-30T16:47:46;21.63;;;13.20;;
63370;SDS011;49504;48.336;14.472;2023-04-30T16:51:08;17.20;;;12.57;;
63370;SDS011;49504;48.336;14.472;2023-04-30T16:54:30;17.83;;;12.52;;
63370;SDS011;49504;48.336;14.472;2023-04-30T16:57:51;17.05;;;12.63;;
63370;SDS011;49504;48.336;14.472;2023-04-30T17:01:14;18.73;;;12.70;;
63370;SDS011;49504;48.336;14.472;2023-04-30T17:04:35;17.75;;;12.07;;
63370;SDS011;49504;48.336;14.472;2023-04-30T17:10:59;13.65;;;10.60;;
63370;SDS011;49504;48.336;14.472;2023-04-30T17:14:21;33.22;;;19.80;;
63370;SDS011;49504;48.336;14.472;2023-04-30T17:20:48;21.83;;;15.07;;
63370;SDS011;49504;48.336;14.472;2023-04-30T17:24:10;23.33;;;15.75;;
63370;SDS011;49504;48.336;14.472;2023-04-30T17:33:26;23.40;;;15.85;;
63370;SDS011;49504;48.336;14.472;2023-04-30T17:38:40;21.05;;;14.60;;
63370;SDS011;49504;48.336;14.472;2023-04-30T17:42:02;22.92;;;15.48;;
63370;SDS011;49504;48.336;14.472;2023-04-30T17:45:23;20.80;;;14.70;;
63370;SDS011;49504;48.336;14.472;2023-04-30T17:48:44;23.70;;;14.63;;
63370;SDS011;49504;48.336;14.472;2023-04-30T17:52:05;20.05;;;14.50;;
63370;SDS011;49504;48.336;14.472;2023-04-30T17:55:27;20.85;;;14.00;;
63370;SDS011;49504;48.336;14.472;2023-04-30T17:58:48;18.75;;;14.30;;
63370;SDS011;49504;48.336;14.472;2023-04-30T18:02:10;19.40;;;14.00;;
63370;SDS011;49504;48.336;14.472;2023-04-30T18:05:31;19.42;;;13.23;;
63370;SDS011;49504;48.336;14.472;2023-04-30T18:08:53;21.92;;;13.05;;
63370;SDS011;49504;48.336;14.472;2023-04-30T18:12:15;20.13;;;13.82;;
63370;SDS011;49504;48.336;14.472;2023-04-30T18:15:37;22.67;;;13.52;;
63370;SDS011;49504;48.336;14.472;2023-04-30T18:18:58;19.75;;;12.90;;
63370;SDS011;49504;48.336;14.472;2023-04-30T18:22:19;22.08;;;14.68;;
63370;SDS011;49504;48.336;14.472;2023-04-30T18:25:40;19.08;;;13.45;;
63370;SDS011;49504;48.336;14.472;2023-04-30T18:29:03;17.60;;;12.90;;
63370;SDS011;49504;48.336;14.472;2023-04-30T18:32:24;20.05;;;13.00;;
63370;SDS011;49504;48.336;14.472;2023-04-30T18:35:45;17.77;;;13.02;;
63370;SDS011;49504;48.336;14.472;2023-04-30T18:39:06;17.10;;;12.50;;
63370;SDS011;49504;48.336;14.472;2023-04-30T18:42:27;17.15;;;12.30;;
63370;SDS011;49504;48.336;14.472;2023-04-30T18:45:50;14.82;;;12.05;;
63370;SDS011;49504;48.336;14.472;2023-04-30T18:49:11;17.30;;;12.70;;
63370;SDS011;49504;48.336;14.472;2023-04-30T18:52:32;16.55;;;11.35;;
63370;SDS011;49504;48.336;14.472;2023-04-30T18:55:54;15.57;;;11.85;;
63370;SDS011;49504;48.336;14.472;2023-04-30T18:59:16;16.20;;;10.98;;
63370;SDS011;49504;48.336;14.472;2023-04-30T19:02:38;16.50;;;11.85;;
63370;SDS011;49504;48.336;14.472;2023-04-30T19:06:00;15.85;;;11.57;;
63370;SDS011;49504;48.336;14.472;2023-04-30T19:09:21;15.65;;;12.48;;
63370;SDS011;49504;48.336;14.472;2023-04-30T19:13:07;14.95;;;11.18;;
63370;SDS011;49504;48.336;14.472;2023-04-30T19:16:28;15.18;;;11.38;;
63370;SDS011;49504;48.336;14.472;2023-04-30T19:19:49;15.85;;;10.93;;
63370;SDS011;49504;48.336;14.472;2023-04-30T19:23:10;16.08;;;10.40;;
63370;SDS011;49504;48.336;14.472;2023-04-30T19:26:31;17.25;;;12.10;;
63370;SDS011;49504;48.336;14.472;2023-04-30T19:29:54;14.38;;;10.25;;
63370;SDS011;49504;48.336;14.472;2023-04-30T19:33:15;15.35;;;11.00;;
63370;SDS011;49504;48.336;14.472;2023-04-30T19:36:36;14.13;;;10.65;;
63370;SDS011;49504;48.336;14.472;2023-04-30T19:39:58;14.57;;;10.88;;
63370;SDS011;49504;48.336;14.472;2023-04-30T19:43:19;15.55;;;11.50;;
63370;SDS011;49504;48.336;14.472;2023-04-30T19:46:42;13.23;;;10.10;;
63370;SDS011;49504;48.336;14.472;2023-04-30T19:50:03;15.45;;;10.15;;
63370;SDS011;49504;48.336;14.472;2023-04-30T19:53:26;13.98;;;10.05;;
63370;SDS011;49504;48.336;14.472;2023-04-30T19:56:48;15.13;;;10.82;;
63370;SDS011;49504;48.336;14.472;2023-04-30T20:00:09;13.38;;;10.05;;
63370;SDS011;49504;48.336;14.472;2023-04-30T20:03:33;12.93;;;9.98;;
63370;SDS011;49504;48.336;14.472;2023-04-30T20:06:54;12.73;;;10.32;;
63370;SDS011;49504;48.336;14.472;2023-04-30T20:10:15;13.75;;;10.02;;
63370;SDS011;49504;48.336;14.472;2023-04-30T20:13:36;14.88;;;10.27;;
63370;SDS011;49504;48.336;14.472;2023-04-30T20:16:58;14.10;;;9.25;;
63370;SDS011;49504;48.336;14.472;2023-04-30T20:20:21;11.35;;;8.80;;
63370;SDS011;49504;48.336;14.472;2023-04-30T20:23:42;10.60;;;8.18;;
63370;SDS011;49504;48.336;14.472;2023-04-30T20:27:04;11.35;;;9.15;;
63370;SDS011;49504;48.336;14.472;2023-04-30T20:30:25;10.55;;;8.30;;
63370;SDS011;49504;48.336;14.472;2023-04-30T20:33:46;11.73;;;8.85;;
63370;SDS011;49504;48.336;14.472;2023-04-30T20:37:09;12.73;;;8.73;;
63370;SDS011;49504;48.336;14.472;2023-04-30T20:40:30;11.13;;;8.82;;
63370;SDS011;49504;48.336;14.472;2023-04-30T20:43:51;12.52;;;8.98;;
63370;SDS011;49504;48.336;14.472;2023-04-30T20:47:12;12.07;;;8.93;;
63370;SDS011;49504;48.336;14.472;2023-04-30T20:50:34;12.45;;;9.00;;
63370;SDS011;49504;48.336;14.472;2023-04-30T20:53:58;13.27;;;9.18;;
63370;SDS011;49504;48.336;14.472;2023-04-30T20:58:34;10.65;;;7.78;;
63370;SDS011;49504;48.336;14.472;2023-04-30T21:01:55;11.32;;;7.93;;
63370;SDS011;49504;48.336;14.472;2023-04-30T21:05:16;11.15;;;8.38;;
63370;SDS011;49504;48.336;14.472;2023-04-30T21:08:38;9.98;;;7.53;;
63370;SDS011;49504;48.336;14.472;2023-04-30T21:11:59;10.35;;;7.97;;
63370;SDS011;49504;48.336;14.472;2023-04-30T21:15:21;10.82;;;8.30;;
63370;SDS011;49504;48.336;14.472;2023-04-30T21:18:42;10.57;;;7.97;;
63370;SDS011;49504;48.336;14.472;2023-04-30T21:22:04;9.77;;;7.60;;
63370;SDS011;49504;48.336;14.472;2023-04-30T21:25:25;9.40;;;7.68;;
63370;SDS011;49504;48.336;14.472;2023-04-30T21:28:46;10.27;;;7.30;;
63370;SDS011;49504;48.336;14.472;2023-04-30T21:32:09;10.50;;;7.75;;
63370;SDS011;49504;48.336;14.472;2023-04-30T21:35:30;9.75;;;7.55;;
63370;SDS011;49504;48.336;14.472;2023-04-30T21:38:51;10.57;;;7.28;;
63370;SDS011;49504;48.336;14.472;2023-04-30T21:44:40;10.23;;;7.35;;
63370;SDS011;49504;48.336;14.472;2023-04-30T21:48:01;10.20;;;7.30;;
63370;SDS011;49504;48.336;14.472;2023-04-30T21:51:23;9.63;;;7.20;;
63370;SDS011;49504;48.336;14.472;2023-04-30T21:54:44;9.38;;;6.88;;
63370;SDS011;49504;48.336;14.472;2023-04-30T21:58:08;9.90;;;6.45;;
63370;SDS011;49504;48.336;14.472;2023-04-30T22:01:30;8.00;;;6.32;;
63370;SDS011;49504;48.336;14.472;2023-04-30T22:04:51;9.38;;;6.50;;
63370;SDS011;49504;48.336;14.472;2023-04-30T22:08:13;9.18;;;6.47;;
63370;SDS011;49504;48.336;14.472;2023-04-30T22:11:34;8.70;;;6.45;;
63370;SDS011;49504;48.336;14.472;2023-04-30T22:14:55;10.55;;;6.72;;
63370;SDS011;49504;48.336;14.472;2023-04-30T22:18:17;7.75;;;5.97;;
63370;SDS011;49504;48.336;14.472;2023-04-30T22:24:28;8.10;;;6.45;;
63370;SDS011;49504;48.336;14.472;2023-04-30T22:27:49;8.55;;;6.22;;
63370;SDS011;49504;48.336;14.472;2023-04-30T22:31:10;8.27;;;5.82;;
63370;SDS011;49504;48.336;14.472;2023-04-30T22:34:31;8.55;;;6.28;;
63370;SDS011;49504;48.336;14.472;2023-04-30T22:37:54;7.55;;;5.63;;
63370;SDS011;49504;48.336;14.472;2023-04-30T22:44:21;7.63;;;5.70;;